createdAt,value
2018-12-02T00:00:32.156Z,46.50
2018-12-02T00:03:00.376Z,54.53
2018-12-02T00:05:28.440Z,49.15
2018-12-02T00:07:56.359Z,45.63
2018-12-02T00:10:24.588Z,42.85
2018-12-02T00:12:52.456Z,47.58
2018-12-02T00:15:20.931Z,50.60
2018-12-02T00:17:49.144Z,48.83
2018-12-02T00:20:17.014Z,45.10
2018-12-02T00:22:44.952Z,43.92
2018-12-02T00:25:14.307Z,44.80
2018-12-02T00:27:42.823Z,74.05
2018-12-02T00:30:12.096Z,85.38
2018-12-02T00:32:40.068Z,60.63
2018-12-02T00:35:08.934Z,48.85
2018-12-02T00:37:36.811Z,48.17
2018-12-02T00:40:06.331Z,46.37
2018-12-02T00:42:34.156Z,43.83
2018-12-02T00:45:01.936Z,37.38
2018-12-02T00:47:29.853Z,41.85
2018-12-02T00:49:57.759Z,41.73
2018-12-02T00:52:25.622Z,45.00
2018-12-02T00:54:53.500Z,42.25
2018-12-02T00:57:21.428Z,83.92
2018-12-02T00:59:49.341Z,94.20
2018-12-02T01:02:17.301Z,88.05
2018-12-02T01:04:45.136Z,55.40
2018-12-02T01:07:13.036Z,49.73
2018-12-02T01:09:40.860Z,50.05
2018-12-02T01:12:08.667Z,43.25
2018-12-02T01:14:36.506Z,51.33
2018-12-02T01:17:04.512Z,73.25
2018-12-02T01:19:32.387Z,47.88
2018-12-02T01:22:00.324Z,50.38
2018-12-02T01:24:28.311Z,46.00
2018-12-02T01:26:56.185Z,44.70
2018-12-02T01:29:24.004Z,44.95
2018-12-02T01:31:51.887Z,45.43
2018-12-02T01:34:19.917Z,46.25
2018-12-02T01:36:47.808Z,42.75
2018-12-02T01:39:15.728Z,42.67
2018-12-02T01:41:43.647Z,42.55
2018-12-02T01:44:11.523Z,43.08
2018-12-02T01:46:39.330Z,43.55
2018-12-02T01:49:07.163Z,46.45
2018-12-02T01:51:35.028Z,42.83
2018-12-02T01:54:02.955Z,42.85
2018-12-02T01:56:30.803Z,43.80
2018-12-02T01:58:58.688Z,41.83
2018-12-02T02:01:26.543Z,42.90
2018-12-02T02:03:54.478Z,38.53
2018-12-02T02:06:22.369Z,41.23
2018-12-02T02:08:50.199Z,42.85
2018-12-02T02:11:18.027Z,40.38
2018-12-02T02:13:45.896Z,41.13
2018-12-02T02:16:13.786Z,41.18
2018-12-02T02:18:41.735Z,44.90
2018-12-02T02:21:09.595Z,45.28
2018-12-02T02:23:37.412Z,41.37
2018-12-02T02:26:05.272Z,45.35
2018-12-02T02:28:33.153Z,42.48
2018-12-02T02:31:00.973Z,46.53
2018-12-02T02:33:28.785Z,43.52
2018-12-02T02:35:56.613Z,43.98
2018-12-02T02:38:24.492Z,41.50
2018-12-02T02:40:52.540Z,42.93
2018-12-02T02:43:20.423Z,45.95
2018-12-02T02:45:48.292Z,46.85
2018-12-02T02:48:16.196Z,46.23
2018-12-02T02:50:44.015Z,45.67
2018-12-02T02:53:11.855Z,42.30
2018-12-02T02:55:40.378Z,43.58
2018-12-02T02:58:08.326Z,41.63
2018-12-02T03:00:36.203Z,43.00
2018-12-02T03:03:04.072Z,42.15
2018-12-02T03:05:32.002Z,42.05
2018-12-02T03:07:59.913Z,42.27
2018-12-02T03:10:27.836Z,44.05
2018-12-02T03:12:55.692Z,46.05
2018-12-02T03:15:23.921Z,46.25
2018-12-02T03:17:51.830Z,45.65
2018-12-02T03:20:20.363Z,47.33
2018-12-02T03:22:48.827Z,45.80
2018-12-02T03:25:17.190Z,44.33
2018-12-02T03:27:45.110Z,42.13
2018-12-02T03:30:18.365Z,45.92
2018-12-02T03:32:46.473Z,45.90
2018-12-02T03:35:17.820Z,47.73
2018-12-02T03:37:45.731Z,43.25
2018-12-02T03:40:14.253Z,45.23
2018-12-02T03:42:42.168Z,52.20
2018-12-02T03:45:12.382Z,44.18
2018-12-02T03:47:40.256Z,40.35
2018-12-02T03:50:10.024Z,42.40
2018-12-02T03:52:37.839Z,40.70
2018-12-02T03:55:06.727Z,40.67
2018-12-02T03:57:34.581Z,45.08
2018-12-02T04:00:02.476Z,43.75
2018-12-02T04:02:30.424Z,39.03
2018-12-02T04:04:58.246Z,39.40
2018-12-02T04:07:26.115Z,39.48
2018-12-02T04:09:53.988Z,42.98
2018-12-02T04:12:21.857Z,41.25
2018-12-02T04:14:49.783Z,40.00
2018-12-02T04:17:17.635Z,37.73
2018-12-02T04:19:45.491Z,38.00
2018-12-02T04:22:13.477Z,38.60
2018-12-02T04:24:41.287Z,40.63
2018-12-02T04:27:09.273Z,45.52
2018-12-02T04:29:37.108Z,39.75
2018-12-02T04:32:05.019Z,37.10
2018-12-02T04:34:32.859Z,36.13
2018-12-02T04:37:00.690Z,38.42
2018-12-02T04:39:28.492Z,42.62
2018-12-02T04:41:56.383Z,40.48
2018-12-02T04:44:24.404Z,40.83
2018-12-02T04:46:52.315Z,41.85
2018-12-02T04:49:20.184Z,35.52
2018-12-02T04:51:48.051Z,42.20
2018-12-02T04:54:15.988Z,45.00
2018-12-02T04:56:43.831Z,38.85
2018-12-02T04:59:11.662Z,38.98
2018-12-02T05:01:39.470Z,41.77
2018-12-02T05:04:07.318Z,40.33
2018-12-02T05:06:35.272Z,38.35
2018-12-02T05:09:03.346Z,39.78
2018-12-02T05:11:31.353Z,36.73
2018-12-02T05:13:59.234Z,37.60
2018-12-02T05:16:27.084Z,39.00
2018-12-02T05:18:54.911Z,36.15
2018-12-02T05:21:22.776Z,39.03
2018-12-02T05:23:50.759Z,38.33
2018-12-02T05:26:18.664Z,37.73
2018-12-02T05:28:46.535Z,42.62
2018-12-02T05:31:14.479Z,40.70
2018-12-02T05:33:42.322Z,40.92
2018-12-02T05:36:10.209Z,39.48
2018-12-02T05:38:38.103Z,39.92
2018-12-02T05:41:05.982Z,44.08
2018-12-02T05:43:33.846Z,39.00
2018-12-02T05:46:01.715Z,38.88
2018-12-02T05:48:29.528Z,41.18
2018-12-02T05:50:57.355Z,39.00
2018-12-02T05:53:25.168Z,34.33
2018-12-02T05:55:53.143Z,39.13
2018-12-02T05:58:21.033Z,41.55
2018-12-02T06:00:48.978Z,41.37
2018-12-02T06:03:16.850Z,44.13
2018-12-02T06:05:44.711Z,54.73
2018-12-02T06:08:12.648Z,51.68
2018-12-02T06:10:40.501Z,47.38
2018-12-02T06:13:08.448Z,46.92
2018-12-02T06:15:36.336Z,46.65
2018-12-02T06:18:04.203Z,45.70
2018-12-02T06:20:32.327Z,43.58
2018-12-02T06:23:00.194Z,39.48
2018-12-02T06:25:28.120Z,42.83
2018-12-02T06:27:55.927Z,43.30
2018-12-02T06:30:24.959Z,42.30
2018-12-02T06:32:54.168Z,43.40
2018-12-02T06:35:22.056Z,43.42
2018-12-02T06:37:50.207Z,42.08
2018-12-02T06:40:18.639Z,48.42
2018-12-02T06:42:53.973Z,49.85
2018-12-02T06:45:22.416Z,48.70
2018-12-02T06:47:50.667Z,47.38
2018-12-02T06:50:20.016Z,43.15
2018-12-02T06:52:47.873Z,41.13
2018-12-02T06:55:25.187Z,46.28
2018-12-02T06:58:00.615Z,44.45
2018-12-02T07:00:34.952Z,45.60
2018-12-02T07:03:10.616Z,60.10
2018-12-02T07:05:41.303Z,49.03
2018-12-02T07:08:09.091Z,52.03
2018-12-02T07:10:36.912Z,47.08
2018-12-02T07:13:04.845Z,43.42
2018-12-02T07:15:32.750Z,45.10
2018-12-02T07:18:02.348Z,57.35
2018-12-02T07:20:33.435Z,63.00
2018-12-02T07:23:03.508Z,61.30
2018-12-02T07:25:37.560Z,57.63
2018-12-02T07:28:06.006Z,51.67
2018-12-02T07:30:33.811Z,58.67
2018-12-02T07:33:01.699Z,59.50
2018-12-02T07:35:29.548Z,57.83
2018-12-02T07:37:58.080Z,57.20
2018-12-02T07:40:26.900Z,57.83
2018-12-02T07:42:54.824Z,54.57
2018-12-02T07:45:22.631Z,54.30
2018-12-02T07:47:50.465Z,59.63
2018-12-02T07:50:18.384Z,56.60
2018-12-02T07:52:46.296Z,60.73
2018-12-02T07:55:14.259Z,79.50
2018-12-02T07:57:42.695Z,58.73
2018-12-02T08:00:12.198Z,59.27
2018-12-02T08:02:40.052Z,54.80
2018-12-02T08:05:08.801Z,54.23
2018-12-02T08:07:36.668Z,99.80
2018-12-02T08:10:05.676Z,71.60
2018-12-02T08:12:33.543Z,59.63
2018-12-02T08:15:01.397Z,67.80
2018-12-02T08:17:29.296Z,68.13
2018-12-02T08:19:57.099Z,65.33
2018-12-02T08:22:25.037Z,66.80
2018-12-02T08:24:52.835Z,59.47
2018-12-02T08:27:20.672Z,55.40
2018-12-02T08:29:48.531Z,55.50
2018-12-02T08:32:16.399Z,53.20
2018-12-02T08:34:44.484Z,53.80
2018-12-02T08:37:12.400Z,54.77
2018-12-02T08:39:40.313Z,53.00
2018-12-02T08:42:08.183Z,52.97
2018-12-02T08:44:36.060Z,57.03
2018-12-02T08:47:04.003Z,55.50
2018-12-02T08:49:31.841Z,55.83
2018-12-02T08:51:59.659Z,55.97
2018-12-02T08:54:27.475Z,61.87
2018-12-02T08:56:55.284Z,57.63
2018-12-02T08:59:23.144Z,52.13
2018-12-02T09:01:51.027Z,48.60
2018-12-02T09:04:18.896Z,50.17
2018-12-02T09:06:46.772Z,49.30
2018-12-02T09:09:15.488Z,51.23
2018-12-02T09:11:43.316Z,53.60
2018-12-02T09:14:11.131Z,60.93
2018-12-02T09:16:39.003Z,58.23
2018-12-02T09:19:06.859Z,59.80
2018-12-02T09:21:34.690Z,60.47
2018-12-02T09:24:02.496Z,64.23
2018-12-02T09:26:30.383Z,63.93
2018-12-02T09:28:58.322Z,65.37
2018-12-02T09:31:26.214Z,67.27
2018-12-02T09:33:54.088Z,65.37
2018-12-02T09:36:22.036Z,66.57
2018-12-02T09:38:49.903Z,65.23
2018-12-02T09:41:17.723Z,60.40
2018-12-02T09:43:45.765Z,61.67
2018-12-02T09:46:13.969Z,60.07
2018-12-02T09:48:41.787Z,53.63
2018-12-02T09:51:09.601Z,61.70
2018-12-02T09:53:37.486Z,85.67
2018-12-02T09:56:05.631Z,66.53
2018-12-02T09:58:33.469Z,65.07
2018-12-02T10:01:01.348Z,70.30
2018-12-02T10:03:29.240Z,60.27
2018-12-02T10:05:57.166Z,58.83
2018-12-02T10:08:25.087Z,61.80
2018-12-02T10:10:54.489Z,43.47
2018-12-02T10:13:22.884Z,39.80
2018-12-02T10:15:50.860Z,42.90
2018-12-02T10:18:18.816Z,42.10
2018-12-02T10:20:46.642Z,44.80
2018-12-02T10:23:14.454Z,36.37
2018-12-02T10:25:42.310Z,62.23
2018-12-02T10:28:10.493Z,46.67
2018-12-02T10:30:39.011Z,44.57
2018-12-02T10:33:07.044Z,49.30
2018-12-02T10:35:34.844Z,48.93
2018-12-02T10:38:02.700Z,53.13
2018-12-02T10:40:30.543Z,53.63
2018-12-02T10:42:59.647Z,47.97
2018-12-02T10:45:27.833Z,50.03
2018-12-02T10:47:56.160Z,53.67
2018-12-02T10:50:24.666Z,55.23
2018-12-02T10:52:53.041Z,48.17
2018-12-02T10:55:30.840Z,52.67
2018-12-02T10:57:58.715Z,54.47
2018-12-02T11:00:31.666Z,51.10
2018-12-02T11:02:59.559Z,53.37
2018-12-02T11:05:27.497Z,50.37
2018-12-02T11:07:55.355Z,53.20
2018-12-02T11:10:23.179Z,53.13
2018-12-02T11:12:51.051Z,51.47
2018-12-02T11:15:19.080Z,53.03
2018-12-02T11:17:47.188Z,72.30
2018-12-02T11:20:17.185Z,51.63
2018-12-02T11:22:45.080Z,46.57
2018-12-02T11:25:13.507Z,45.80
2018-12-02T11:27:41.307Z,58.07
2018-12-02T11:30:10.256Z,47.73
2018-12-02T11:32:38.111Z,48.17
2018-12-02T11:35:06.684Z,51.27
2018-12-02T11:37:34.504Z,64.27
2018-12-02T11:40:02.420Z,62.40
2018-12-02T11:42:30.331Z,53.63
2018-12-02T11:44:58.151Z,50.87
2018-12-02T11:47:25.974Z,54.70
2018-12-02T11:49:53.843Z,48.93
2018-12-02T11:52:21.720Z,45.20
2018-12-02T11:54:49.525Z,50.90
2018-12-02T11:57:17.368Z,46.57
2018-12-02T11:59:45.272Z,41.57
2018-12-02T12:02:13.296Z,44.00
2018-12-02T12:04:41.115Z,41.13
2018-12-02T12:07:09.035Z,42.53
2018-12-02T12:09:37.279Z,41.70
2018-12-02T12:12:05.298Z,41.60
2018-12-02T12:14:33.180Z,40.73
2018-12-02T12:17:01.057Z,37.43
2018-12-02T12:19:28.991Z,37.93
2018-12-02T12:21:56.928Z,37.57
2018-12-02T12:24:24.759Z,37.27
2018-12-02T12:26:52.577Z,38.23
2018-12-02T12:29:20.397Z,38.33
2018-12-02T12:31:48.212Z,34.47
2018-12-02T12:34:16.120Z,39.00
2018-12-02T12:36:43.996Z,38.23
2018-12-02T12:39:11.936Z,37.90
2018-12-02T12:41:39.780Z,37.97
2018-12-02T12:44:09.001Z,37.33
2018-12-02T12:46:36.840Z,41.57
2018-12-02T12:49:04.752Z,40.87
2018-12-02T12:51:32.658Z,45.67
2018-12-02T12:54:00.480Z,37.87
2018-12-02T12:56:28.308Z,43.27
2018-12-02T12:58:56.122Z,37.63
2018-12-02T13:01:23.943Z,40.17
2018-12-02T13:03:51.752Z,40.57
2018-12-02T13:06:19.585Z,36.90
2018-12-02T13:08:47.395Z,41.50
2018-12-02T13:11:15.333Z,75.00
2018-12-02T13:13:43.136Z,78.57
2018-12-02T13:16:12.392Z,78.20
2018-12-02T13:18:40.382Z,69.47
2018-12-02T13:21:08.192Z,40.90
2018-12-02T13:23:35.992Z,41.90
2018-12-02T13:26:03.841Z,39.63
2018-12-02T13:28:31.659Z,39.57
2018-12-02T13:30:59.530Z,35.67
2018-12-02T13:33:27.391Z,40.00
2018-12-02T13:35:55.199Z,39.83
2018-12-02T13:38:23.140Z,38.97
2018-12-02T13:40:50.953Z,40.13
2018-12-02T13:43:19.664Z,47.27
2018-12-02T13:45:49.536Z,47.10
2018-12-02T13:48:17.540Z,50.03
2018-12-02T13:50:45.487Z,50.63
2018-12-02T13:53:13.539Z,50.03
2018-12-02T13:55:41.378Z,57.03
2018-12-02T13:58:09.378Z,51.17
2018-12-02T14:00:38.009Z,50.73
2018-12-02T14:03:07.627Z,51.63
2018-12-02T14:05:35.958Z,46.10
2018-12-02T14:08:03.879Z,50.60
2018-12-02T14:10:32.003Z,94.77
2018-12-02T14:13:01.527Z,164.43
2018-12-02T14:15:34.696Z,247.70
2018-12-02T14:18:05.272Z,179.57
2018-12-02T14:20:33.624Z,183.67
2018-12-02T14:23:02.504Z,111.57
2018-12-02T14:25:30.356Z,140.30
2018-12-02T14:27:58.514Z,127.77
2018-12-02T14:30:26.492Z,140.83
2018-12-02T14:32:54.674Z,121.67
2018-12-02T14:35:22.859Z,112.83
2018-12-02T14:37:50.919Z,75.83
2018-12-02T14:40:18.784Z,66.67
2018-12-02T14:42:46.688Z,67.27
2018-12-02T14:45:15.199Z,75.97
2018-12-02T14:47:43.028Z,75.43
2018-12-02T14:50:11.800Z,68.60
2018-12-02T14:52:39.773Z,75.83
2018-12-02T14:55:08.673Z,76.60
2018-12-02T14:57:36.676Z,74.40
2018-12-02T15:00:06.015Z,69.50
2018-12-02T15:02:34.407Z,77.33
2018-12-02T15:05:02.354Z,70.07
2018-12-02T15:07:30.231Z,69.83
2018-12-02T15:09:58.168Z,73.80
2018-12-02T15:12:26.015Z,65.00
2018-12-02T15:14:53.894Z,65.00
2018-12-02T15:17:21.760Z,72.90
2018-12-02T15:19:49.621Z,61.93
2018-12-02T15:22:17.486Z,61.57
2018-12-02T15:24:45.369Z,60.77
2018-12-02T15:27:13.288Z,65.37
2018-12-02T15:29:41.156Z,73.43
2018-12-02T15:32:08.984Z,79.43
2018-12-02T15:34:36.844Z,96.93
2018-12-02T15:37:04.820Z,83.37
2018-12-02T15:39:32.636Z,83.10
2018-12-02T15:42:00.452Z,83.60
2018-12-02T15:44:28.398Z,93.30
2018-12-02T15:46:56.311Z,159.07
2018-12-02T15:49:24.263Z,182.33
2018-12-02T15:51:52.142Z,178.47
2018-12-02T15:54:20.153Z,141.17
2018-12-02T15:56:48.852Z,128.20
2018-12-02T15:59:16.884Z,99.97
2018-12-02T16:01:44.771Z,93.33
2018-12-02T16:04:12.952Z,80.97
2018-12-02T16:06:40.845Z,73.80
2018-12-02T16:09:09.475Z,69.80
2018-12-02T16:11:37.287Z,71.63
2018-12-02T16:14:05.802Z,75.83
2018-12-02T16:16:33.624Z,76.70
2018-12-02T16:19:01.692Z,65.83
2018-12-02T16:21:29.568Z,67.50
2018-12-02T16:23:57.478Z,76.30
2018-12-02T16:26:25.359Z,72.73
2018-12-02T16:28:53.476Z,67.83
2018-12-02T16:31:21.397Z,61.30
2018-12-02T16:33:49.312Z,71.07
2018-12-02T16:36:17.313Z,73.33
2018-12-02T16:38:45.188Z,97.13
2018-12-02T16:41:13.119Z,101.77
2018-12-02T16:43:41.454Z,101.50
2018-12-02T16:46:09.858Z,98.67
2018-12-02T16:48:37.822Z,95.83
2018-12-02T16:51:05.797Z,94.42
2018-12-02T16:53:33.893Z,103.22
2018-12-02T16:56:07.088Z,101.67
2018-12-02T16:59:12.245Z,120.13
2018-12-02T17:01:40.421Z,128.67
2018-12-02T17:04:08.468Z,104.90
2018-12-02T17:06:36.570Z,82.53
2018-12-02T17:09:06.705Z,91.00
2018-12-02T17:11:34.834Z,88.10
2018-12-02T17:14:03.149Z,86.40
2018-12-02T17:16:32.230Z,93.47
2018-12-02T17:19:00.864Z,103.10
2018-12-02T17:21:29.050Z,106.70
2018-12-02T17:23:56.951Z,111.67
2018-12-02T17:26:25.244Z,97.57
2018-12-02T17:28:53.330Z,86.57
2018-12-02T17:31:24.223Z,96.67
2018-12-02T17:33:52.380Z,115.92
2018-12-02T17:36:20.663Z,132.47
2018-12-02T17:38:49.406Z,100.20
2018-12-02T17:41:17.664Z,97.02
2018-12-02T17:43:45.742Z,105.90
2018-12-02T17:46:14.182Z,120.30
2018-12-02T17:48:42.027Z,118.67
2018-12-02T17:51:09.998Z,124.18
2018-12-02T17:53:38.670Z,119.05
2018-12-02T17:56:06.782Z,148.20
2018-12-02T17:58:34.683Z,161.27
2018-12-02T18:01:02.519Z,208.97
2018-12-02T18:03:31.184Z,177.87
2018-12-02T18:05:59.108Z,116.10
2018-12-02T18:08:27.024Z,115.00
2018-12-02T18:10:54.946Z,104.72
2018-12-02T18:13:22.904Z,101.00
2018-12-02T18:15:50.839Z,106.55
2018-12-02T18:18:18.757Z,108.65
2018-12-02T18:20:48.268Z,111.47
2018-12-02T18:23:16.282Z,122.70
2018-12-02T18:25:44.118Z,118.90
2018-12-02T18:28:12.246Z,123.78
2018-12-02T18:30:40.572Z,119.13
2018-12-02T18:33:08.468Z,167.32
2018-12-02T18:35:42.212Z,250.97
2018-12-02T18:38:10.924Z,259.35
2018-12-02T18:40:39.656Z,215.25
2018-12-02T18:43:07.681Z,188.05
2018-12-02T18:45:35.764Z,203.73
2018-12-02T18:48:03.705Z,234.05
2018-12-02T18:50:31.580Z,215.95
2018-12-02T18:53:00.102Z,168.60
2018-12-02T18:55:27.773Z,132.63
2018-12-02T18:57:55.755Z,117.47
2018-12-02T19:00:28.796Z,117.03
2018-12-02T19:02:57.044Z,116.10
2018-12-02T19:05:25.122Z,116.15
2018-12-02T19:07:53.249Z,119.25
2018-12-02T19:10:21.956Z,117.60
2018-12-02T19:12:50.137Z,136.20
2018-12-02T19:15:18.036Z,127.38
2018-12-02T19:17:46.192Z,123.10
2018-12-02T19:20:21.516Z,127.42
2018-12-02T19:22:50.096Z,125.97
2018-12-02T19:25:18.648Z,135.12
2018-12-02T19:27:46.565Z,124.97
2018-12-02T19:30:15.196Z,128.25
2018-12-02T19:32:43.199Z,129.72
2018-12-02T19:35:11.831Z,136.60
2018-12-02T19:37:39.740Z,139.82
2018-12-02T19:40:10.108Z,127.72
2018-12-02T19:42:38.043Z,147.87
2018-12-02T19:45:06.680Z,149.75
2018-12-02T19:47:34.527Z,171.02
2018-12-02T19:50:02.419Z,183.42
2018-12-02T19:52:30.333Z,248.40
2018-12-02T19:54:58.225Z,186.82
2018-12-02T19:57:26.115Z,159.70
2018-12-02T19:59:54.025Z,140.45
2018-12-02T20:02:21.965Z,137.95
2018-12-02T20:04:49.917Z,128.00
2018-12-02T20:07:17.895Z,128.80
2018-12-02T20:09:45.809Z,116.67
2018-12-02T20:12:13.729Z,112.83
2018-12-02T20:14:41.853Z,123.45
2018-12-02T20:17:09.755Z,114.60
2018-12-02T20:19:42.802Z,118.17
2018-12-02T20:22:10.619Z,124.90
2018-12-02T20:24:40.224Z,124.38
2018-12-02T20:27:08.266Z,120.82
2018-12-02T20:29:36.194Z,115.22
2018-12-02T20:32:04.304Z,106.05
2018-12-02T20:34:32.219Z,102.02
2018-12-02T20:37:00.139Z,110.00
2018-12-02T20:39:28.055Z,112.52
2018-12-02T20:41:56.074Z,113.57
2018-12-02T20:44:24.056Z,103.47
2018-12-02T20:46:51.899Z,110.15
2018-12-02T20:49:19.742Z,118.28
2018-12-02T20:51:47.647Z,120.17
2018-12-02T20:54:15.563Z,120.53
2018-12-02T20:56:43.477Z,121.97
2018-12-02T20:59:11.304Z,110.60
2018-12-02T21:01:39.231Z,95.40
2018-12-02T21:04:08.338Z,99.17
2018-12-02T21:06:36.172Z,112.05
2018-12-02T21:09:05.136Z,105.07
2018-12-02T21:11:33.015Z,112.55
2018-12-02T21:14:00.979Z,117.05
2018-12-02T21:16:28.857Z,107.05
2018-12-02T21:18:56.759Z,77.22
2018-12-02T21:21:24.626Z,71.22
2018-12-02T21:23:52.607Z,71.25
2018-12-02T21:26:20.578Z,61.92
2018-12-02T21:28:48.444Z,51.83
2018-12-02T21:31:16.407Z,50.25
2018-12-02T21:33:44.383Z,67.22
2018-12-02T21:36:12.287Z,64.77
2018-12-02T21:38:40.158Z,68.90
2018-12-02T21:41:08.096Z,72.58
2018-12-02T21:43:35.947Z,70.22
2018-12-02T21:46:04.077Z,74.82
2018-12-02T21:48:31.989Z,66.97
2018-12-02T21:50:59.813Z,63.48
2018-12-02T21:53:27.687Z,64.22
2018-12-02T21:55:55.643Z,68.25
2018-12-02T21:58:23.463Z,66.20
2018-12-02T22:00:56.520Z,65.32
2018-12-02T22:03:24.473Z,62.95
2018-12-02T22:05:52.391Z,62.43
2018-12-02T22:08:20.303Z,63.65
2018-12-02T22:10:48.285Z,60.95
2018-12-02T22:13:16.250Z,58.02
2018-12-02T22:15:44.120Z,57.85
2018-12-02T22:18:12.027Z,53.30
2018-12-02T22:20:39.911Z,52.58
2018-12-02T22:23:07.820Z,46.80
2018-12-02T22:25:35.690Z,49.67
2018-12-02T22:28:03.495Z,46.80
2018-12-02T22:30:31.561Z,46.53
2018-12-02T22:32:59.439Z,51.37
2018-12-02T22:35:27.267Z,48.25
2018-12-02T22:37:55.089Z,48.55
2018-12-02T22:40:23.755Z,48.60
2018-12-02T22:42:52.232Z,54.98
2018-12-02T22:45:21.748Z,51.75
2018-12-02T22:47:49.563Z,58.28
2018-12-02T22:50:17.884Z,56.40
2018-12-02T22:52:46.411Z,60.20
2018-12-02T22:55:14.272Z,54.30
2018-12-02T22:57:42.155Z,54.50
2018-12-02T23:00:12.160Z,60.98
2018-12-02T23:02:45.156Z,61.25
2018-12-02T23:05:13.116Z,63.23
2018-12-02T23:07:41.079Z,64.32
2018-12-02T23:10:09.027Z,60.95
2018-12-02T23:12:36.880Z,65.05
2018-12-02T23:15:04.868Z,63.05
2018-12-02T23:17:32.712Z,72.27
2018-12-02T23:20:00.604Z,61.55
2018-12-02T23:22:28.451Z,74.50
2018-12-02T23:24:56.275Z,57.83
2018-12-02T23:27:24.088Z,61.60
2018-12-02T23:29:51.957Z,64.65
2018-12-02T23:32:19.828Z,66.53
2018-12-02T23:34:47.645Z,78.87
2018-12-02T23:37:20.448Z,72.55
2018-12-02T23:39:43.536Z,69.60
2018-12-02T23:42:11.411Z,70.00
2018-12-02T23:44:39.280Z,64.95
2018-12-02T23:47:07.179Z,69.03
2018-12-02T23:49:35.060Z,65.25
2018-12-02T23:52:02.885Z,69.20
2018-12-02T23:54:30.730Z,63.55
2018-12-02T23:56:58.771Z,65.28
2018-12-02T23:59:26.638Z,65.95
